Time;durP1;ratioP1;P1;durP2;ratioP2;P2;SDS_P1;SDS_P2;PMS_P1;PMS_P2;Temp;Humidity;BMP_temperature;BMP_pressure;BME280_temperature;BME280_humidity;BME280_pressure;Samples;Min_cycle;Max_cycle;Signal;HPM_P1;HPM_P2
2023/04/21 00:01:13;;;;;;;;;15.60;15.20;;;;;8.96;64.61;99720.97;5097490;28;8846;-57
2023/04/21 00:03:41;;;;;;;;;18.20;16.80;;;;;8.95;64.49;99717.47;5097433;28;8810;-59
2023/04/21 00:06:09;;;;;;;;;16.40;14.20;;;;;8.96;64.73;99721.81;5097086;28;8838;-59
2023/04/21 00:08:39;;;;;;;;;15.60;12.20;;;;;8.96;64.63;99708.53;5096962;28;8841;-59
2023/04/21 00:11:07;;;;;;;;;14.00;12.60;;;;;8.97;64.66;99712.03;5097172;28;8860;-58
2023/04/21 00:13:34;;;;;;;;;18.00;17.20;;;;;8.96;64.71;99705.88;5097152;28;8833;-59
2023/04/21 00:16:02;;;;;;;;;23.20;21.00;;;;;8.97;64.70;99709.38;5096924;28;8833;-59
2023/04/21 00:18:30;;;;;;;;;10.40;7.80;;;;;8.98;64.72;99706.59;5096679;28;8838;-59
2023/04/21 00:20:58;;;;;;;;;8.00;7.20;;;;;8.98;64.35;99703.09;5097379;28;8837;-59
2023/04/21 00:23:25;;;;;;;;;17.20;15.60;;;;;8.98;64.72;99697.78;5097177;28;8857;-59
2023/04/21 00:25:53;;;;;;;;;15.80;14.20;;;;;8.97;64.68;99693.44;5096753;28;8854;-59
2023/04/21 00:28:21;;;;;;;;;17.60;16.60;;;;;8.97;64.77;99691.63;5096764;28;8822;-60
2023/04/21 00:30:48;;;;;;;;;18.00;16.20;;;;;8.97;64.73;99696.94;5097068;28;8838;-59
2023/04/21 00:33:17;;;;;;;;;15.00;12.80;;;;;8.97;64.69;99694.28;5097507;28;8837;-59
2023/04/21 00:35:44;;;;;;;;;16.80;15.60;;;;;8.98;64.61;99687.16;5097179;28;9488;-60
2023/04/21 00:38:12;;;;;;;;;9.00;7.40;;;;;8.97;64.71;99686.31;5097003;28;8884;-58
2023/04/21 00:40:39;;;;;;;;;18.80;16.40;;;;;8.97;64.57;99686.31;5096536;28;8810;-59
2023/04/21 00:43:07;;;;;;;;;16.00;15.40;;;;;8.97;64.13;99691.63;5096781;28;8861;-60
2023/04/21 00:45:35;;;;;;;;;14.20;12.60;;;;;8.97;64.75;99686.31;5096828;28;8814;-59
2023/04/21 00:48:03;;;;;;;;;22.60;21.40;;;;;8.96;64.59;99689.09;5096364;28;8890;-61
2023/04/21 00:50:31;;;;;;;;;18.80;17.60;;;;;8.96;64.79;99681.97;5096134;28;8899;-59
2023/04/21 00:52:58;;;;;;;;;19.60;16.20;;;;;8.96;64.86;99683.78;5096491;28;8826;-61
2023/04/21 00:55:26;;;;;;;;;17.40;16.20;;;;;8.96;64.81;99684.63;5096470;28;8822;-61
2023/04/21 00:57:54;;;;;;;;;17.80;15.60;;;;;8.97;64.95;99683.66;5096857;28;8810;-62
2023/04/21 01:00:22;;;;;;;;;16.80;15.80;;;;;8.99;64.62;99689.72;5096331;28;8853;-62
2023/04/21 01:02:49;;;;;;;;;12.00;10.00;;;;;9.01;64.58;99681.59;5096765;28;8814;-62
2023/04/21 01:05:18;;;;;;;;;14.60;12.40;;;;;9.01;64.69;99686.91;5096098;28;8814;-59
2023/04/21 01:07:45;;;;;;;;;18.00;14.40;;;;;9.00;64.63;99685.22;5095841;28;9727;-60
2023/04/21 01:10:13;;;;;;;;;16.40;15.60;;;;;9.00;64.73;99685.22;5096561;28;8825;-61
2023/04/21 01:12:41;;;;;;;;;21.40;16.00;;;;;8.99;64.83;99681.75;5095811;28;8849;-61
2023/04/21 01:15:09;;;;;;;;;21.20;16.40;;;;;8.99;64.75;99688.84;5095763;28;8802;-61
2023/04/21 01:17:39;;;;;;;;;15.80;13.80;;;;;8.98;64.68;99676.53;5096116;28;9515;-61
2023/04/21 01:20:07;;;;;;;;;15.60;13.80;;;;;8.98;65.32;99688.00;5095860;28;8852;-61
2023/04/21 01:22:35;;;;;;;;;14.40;13.80;;;;;8.98;64.98;99689.81;5095967;28;8872;-60
2023/04/21 01:25:03;;;;;;;;;19.00;15.60;;;;;8.97;65.01;99688.13;5095606;28;8806;-61
2023/04/21 01:27:31;;;;;;;;;12.80;11.80;;;;;8.95;64.79;99685.59;5096215;28;8825;-61
2023/04/21 01:29:58;;;;;;;;;21.00;17.00;;;;;8.95;65.17;99680.28;5095758;28;9539;-61
2023/04/21 01:32:26;;;;;;;;;17.20;15.80;;;;;8.95;64.88;99676.78;5095867;28;8836;-59
2023/04/21 01:34:55;;;;;;;;;16.00;15.60;;;;;8.93;64.96;99676.91;5095777;28;9491;-61
2023/04/21 01:37:23;;;;;;;;;10.60;8.20;;;;;8.92;64.85;99677.88;5095708;28;8826;-61
2023/04/21 01:39:52;;;;;;;;;17.00;16.20;;;;;8.92;65.08;99682.31;5095871;28;8825;-59
2023/04/21 01:42:20;;;;;;;;;16.60;15.80;;;;;8.90;65.01;99677.13;5096037;28;8940;-60
2023/04/21 01:44:48;;;;;;;;;8.60;6.80;;;;;8.89;65.18;99687.88;5095567;28;8891;-61
2023/04/21 01:47:16;;;;;;;;;15.80;15.60;;;;;8.88;65.28;99684.38;5096402;28;8895;-61
2023/04/21 01:49:44;;;;;;;;;15.60;15.20;;;;;8.88;65.63;99680.88;5095319;28;8810;-61
2023/04/21 01:52:11;;;;;;;;;16.60;12.40;;;;;8.88;64.93;99664.97;5095636;28;8864;-61
2023/04/21 01:54:39;;;;;;;;;24.00;21.00;;;;;8.87;65.46;99661.44;5095871;28;8891;-61
2023/04/21 01:57:07;;;;;;;;;22.00;19.60;;;;;8.89;65.37;99666.66;5095432;28;8841;-61
2023/04/21 01:59:35;;;;;;;;;15.40;14.60;;;;;8.90;64.98;99655.88;5095912;28;8826;-61
2023/04/21 02:02:03;;;;;;;;;25.40;19.40;;;;;8.89;65.67;99667.47;5095864;28;8818;-60
2023/04/21 02:04:30;;;;;;;;;18.00;16.60;;;;;8.89;65.62;99679.91;5095756;28;8846;-61
2023/04/21 02:06:58;;;;;;;;;13.20;11.20;;;;;8.88;65.79;99678.22;5095410;28;8830;-61
2023/04/21 02:09:26;;;;;;;;;16.00;14.60;;;;;8.87;65.86;99677.38;5095411;28;8814;-61
2023/04/21 02:11:54;;;;;;;;;18.80;17.60;;;;;8.87;66.07;99653.47;5095758;28;9515;-61
2023/04/21 02:14:21;;;;;;;;;18.20;12.60;;;;;8.87;65.86;99652.63;5095917;28;8826;-60
2023/04/21 02:16:49;;;;;;;;;18.80;16.40;;;;;8.87;66.40;99642.84;5095383;28;8817;-61
2023/04/21 02:19:17;;;;;;;;;15.80;15.00;;;;;8.87;65.72;99664.09;5095367;28;9527;-60
2023/04/21 02:21:45;;;;;;;;;20.20;18.40;;;;;8.84;66.15;99680.28;5095534;28;8814;-61
2023/04/21 02:24:13;;;;;;;;;22.40;16.80;;;;;8.81;65.74;99666.38;5095979;28;8818;-61
2023/04/21 02:26:41;;;;;;;;;13.40;12.00;;;;;8.79;66.35;99666.50;5095242;28;8830;-61
2023/04/21 02:29:08;;;;;;;;;22.60;22.00;;;;;8.77;66.26;99657.81;5095257;28;8830;-61
2023/04/21 02:31:36;;;;;;;;;18.20;16.40;;;;;8.76;66.47;99642.84;5095681;28;8838;-61
2023/04/21 02:34:21;;;;;;;;;20.40;18.60;;;;;8.76;66.42;99648.16;5095663;28;9472;-61
2023/04/21 02:36:48;;;;;;;;;21.80;19.80;;;;;8.77;66.23;99655.16;5095727;28;8825;-60
2023/04/21 02:39:16;;;;;;;;;13.40;12.60;;;;;8.75;66.68;99650.94;5095530;28;8841;-60
2023/04/21 02:41:44;;;;;;;;;19.40;17.00;;;;;8.73;66.68;99656.34;5097663;28;8829;-58
2023/04/21 02:44:12;;;;;;;;;18.80;14.80;;;;;8.73;66.36;99608.56;5099024;28;8841;-59
2023/04/21 02:46:39;;;;;;;;;24.80;19.80;;;;;8.74;66.35;99610.25;5098857;28;8830;-60
2023/04/21 02:49:07;;;;;;;;;23.00;19.60;;;;;8.72;66.42;99633.41;5099112;28;8826;-60
2023/04/21 02:51:35;;;;;;;;;16.60;16.60;;;;;8.69;66.58;99660.22;5098946;28;8814;-60
2023/04/21 02:54:03;;;;;;;;;25.20;20.60;;;;;8.65;66.72;99658.75;5098838;28;8826;-58
2023/04/21 02:56:30;;;;;;;;;24.00;20.20;;;;;8.61;67.20;99653.78;5098592;28;8833;-61
2023/04/21 02:58:58;;;;;;;;;21.00;17.20;;;;;8.54;67.27;99647.25;5098935;28;9543;-59
2023/04/21 03:01:26;;;;;;;;;21.20;16.40;;;;;8.52;67.79;99649.19;5098134;28;8834;-60
2023/04/21 03:03:53;;;;;;;;;18.20;17.60;;;;;8.52;67.22;99670.41;5098394;28;8829;-60
2023/04/21 03:06:21;;;;;;;;;18.80;17.60;;;;;8.50;67.53;99661.72;5098337;28;8834;-61
2023/04/21 03:08:49;;;;;;;;;13.60;11.80;;;;;8.50;67.49;99667.03;5098580;28;9720;-60
2023/04/21 03:11:16;;;;;;;;;21.60;15.80;;;;;8.52;67.59;99660.63;5098505;28;9515;-61
2023/04/21 03:13:44;;;;;;;;;17.60;16.40;;;;;8.55;67.37;99656.91;5098555;28;8821;-61
2023/04/21 03:16:13;;;;;;;;;23.40;20.20;;;;;8.57;67.52;99661.13;5098282;28;8814;-60
2023/04/21 03:18:40;;;;;;;;;27.40;27.20;;;;;8.57;67.73;99650.53;5098290;28;8814;-59
2023/04/21 03:21:08;;;;;;;;;18.20;17.80;;;;;8.58;67.82;99662.00;5098341;28;8818;-61
2023/04/21 03:23:36;;;;;;;;;25.20;22.20;;;;;8.57;66.98;99657.63;5098083;28;8846;-61
2023/04/21 03:26:04;;;;;;;;;22.00;21.20;;;;;8.59;67.02;99669.81;5098363;28;8838;-60
2023/04/21 03:28:31;;;;;;;;;24.00;21.20;;;;;8.58;67.17;99662.81;5097846;28;8822;-61
2023/04/21 03:30:59;;;;;;;;;19.80;16.40;;;;;8.59;67.44;99663.69;5097899;28;8859;-60
2023/04/21 03:33:27;;;;;;;;;17.60;16.80;;;;;8.60;66.75;99660.88;5097670;28;8884;-61
2023/04/21 03:35:54;;;;;;;;;12.00;11.60;;;;;8.62;67.46;99652.81;5098131;28;8818;-58
2023/04/21 03:38:22;;;;;;;;;19.00;17.60;;;;;8.66;67.25;99649.81;5097643;28;8818;-60
2023/04/21 03:40:50;;;;;;;;;22.00;18.20;;;;;8.70;66.56;99650.41;5097437;28;8826;-60
2023/04/21 03:43:18;;;;;;;;;18.00;16.80;;;;;8.75;66.53;99656.25;5097691;28;8840;-61
2023/04/21 03:45:46;;;;;;;;;16.80;14.20;;;;;8.78;67.20;99656.84;5097507;28;8833;-61
2023/04/21 03:48:13;;;;;;;;;25.60;21.80;;;;;8.83;66.69;99659.16;5097365;28;9664;-61
2023/04/21 03:50:41;;;;;;;;;19.40;17.40;;;;;8.88;66.95;99655.16;5097030;28;8838;-60
2023/04/21 03:53:09;;;;;;;;;21.40;19.80;;;;;8.92;66.84;99663.75;5096733;28;8845;-60
2023/04/21 03:55:36;;;;;;;;;19.20;15.80;;;;;8.96;66.10;99646.63;5097179;28;8822;-61
2023/04/21 03:58:04;;;;;;;;;21.40;19.80;;;;;8.98;66.92;99640.19;5097256;28;8806;-61
2023/04/21 04:00:32;;;;;;;;;20.20;19.80;;;;;8.98;66.84;99652.66;5096964;28;8849;-60
2023/04/21 04:03:00;;;;;;;;;21.00;18.60;;;;;8.96;66.60;99662.56;5097030;28;8844;-61
2023/04/21 04:05:28;;;;;;;;;23.20;21.60;;;;;8.93;67.06;99653.00;5097238;28;8817;-61
2023/04/21 04:07:55;;;;;;;;;20.00;16.80;;;;;8.95;67.08;99653.72;5096894;28;8814;-61
2023/04/21 04:10:23;;;;;;;;;24.60;22.00;;;;;8.95;67.08;99656.38;5096585;28;8919;-61
2023/04/21 04:12:51;;;;;;;;;21.40;18.80;;;;;8.97;66.90;99651.78;5096704;28;8825;-61
2023/04/21 04:15:18;;;;;;;;;21.40;19.00;;;;;9.00;66.97;99645.41;5096578;28;9635;-58
2023/04/21 04:17:46;;;;;;;;;25.40;23.00;;;;;9.00;66.46;99640.94;5096700;28;8920;-59
2023/04/21 04:20:14;;;;;;;;;19.40;15.80;;;;;9.00;66.83;99640.94;5096648;28;8941;-61
2023/04/21 04:22:41;;;;;;;;;7.80;6.60;;;;;9.00;67.12;99642.75;5096612;28;8903;-60
2023/04/21 04:25:11;;;;;;;;;19.00;16.80;;;;;8.99;66.91;99635.75;5096697;28;8834;-61
2023/04/21 04:27:40;;;;;;;;;30.60;21.80;;;;;8.97;66.92;99651.78;5096765;28;8842;-58
2023/04/21 04:30:08;;;;;;;;;22.00;19.00;;;;;8.97;67.01;99653.63;5096917;28;8903;-60
2023/04/21 04:32:37;;;;;;;;;24.00;22.80;;;;;8.96;67.00;99657.25;5096725;28;8817;-61
2023/04/21 04:35:04;;;;;;;;;21.80;14.60;;;;;8.96;67.13;99658.06;5096422;28;8919;-59
2023/04/21 04:37:33;;;;;;;;;20.60;17.20;;;;;8.94;67.14;99649.38;5096136;28;8879;-61
2023/04/21 04:40:01;;;;;;;;;18.00;15.00;;;;;8.95;67.24;99656.38;5096116;28;8833;-60
2023/04/21 04:42:29;;;;;;;;;21.20;17.20;;;;;8.95;66.93;99660.88;5096403;28;8826;-61
2023/04/21 04:45:00;;;;;;;;;18.40;16.80;;;;;8.93;67.00;99653.00;5096838;28;8969;-61
2023/04/21 04:47:28;;;;;;;;;17.80;15.60;;;;;8.95;66.79;99656.38;5096204;28;8834;-60
2023/04/21 04:49:57;;;;;;;;;17.20;16.80;;;;;8.97;67.08;99654.44;5095859;28;8964;-59
2023/04/21 04:52:25;;;;;;;;;17.20;17.20;;;;;8.99;67.11;99649.03;5096388;28;9488;-61
2023/04/21 04:54:53;;;;;;;;;23.60;21.00;;;;;9.01;66.90;99649.75;5095778;28;8830;-60
2023/04/21 04:57:21;;;;;;;;;23.40;22.00;;;;;9.01;67.50;99655.91;5095321;28;8860;-61
2023/04/21 04:59:48;;;;;;;;;27.80;24.80;;;;;9.02;67.10;99646.97;5095714;28;8846;-60
2023/04/21 05:02:16;;;;;;;;;25.20;20.60;;;;;9.04;67.43;99650.34;5095380;28;8822;-61
2023/04/21 05:04:44;;;;;;;;;20.20;19.80;;;;;9.06;67.51;99653.75;5094987;28;9468;-60
2023/04/21 05:07:12;;;;;;;;;24.80;21.80;;;;;9.08;67.17;99651.81;5095487;28;8838;-59
2023/04/21 05:09:40;;;;;;;;;13.20;12.60;;;;;9.10;67.32;99663.16;5094933;28;8837;-60
2023/04/21 05:12:08;;;;;;;;;18.00;16.00;;;;;9.13;66.49;99654.94;5094284;28;8853;-58
2023/04/21 05:14:35;;;;;;;;;25.80;18.80;;;;;9.17;67.07;99656.41;5093183;28;8930;-60
2023/04/21 05:17:03;;;;;;;;;21.60;19.80;;;;;9.18;67.33;99647.47;5093544;28;8841;-59
2023/04/21 05:19:31;;;;;;;;;23.60;20.20;;;;;9.21;66.80;99657.88;5093282;28;8845;-60
2023/04/21 05:22:00;;;;;;;;;21.20;19.80;;;;;9.24;66.92;99652.28;5093185;28;8842;-61
2023/04/21 05:24:28;;;;;;;;;20.20;19.40;;;;;9.28;67.16;99659.03;5093428;28;8814;-58
2023/04/21 05:26:56;;;;;;;;;11.80;9.00;;;;;9.30;66.77;99645.66;5092697;28;8856;-60
2023/04/21 05:29:24;;;;;;;;;25.80;24.40;;;;;9.33;66.81;99662.19;5093021;28;8845;-59
2023/04/21 05:31:52;;;;;;;;;24.80;16.40;;;;;9.36;66.91;99655.78;5093842;28;8862;-60
2023/04/21 05:34:20;;;;;;;;;13.50;11.25;;;;;9.38;67.55;99664.47;5093846;28;8872;-60
2023/04/21 05:36:48;;;;;;;;;19.00;16.80;;;;;9.40;66.78;99663.41;5093592;28;8854;-59
2023/04/21 05:39:16;;;;;;;;;24.80;23.20;;;;;9.42;66.87;99672.09;5093836;28;8818;-58
2023/04/21 05:41:44;;;;;;;;;17.20;16.40;;;;;9.44;66.94;99664.88;5093953;28;8864;-60
2023/04/21 05:44:12;;;;;;;;;21.00;18.80;;;;;9.45;66.89;99666.56;5094377;28;8964;-58
2023/04/21 05:46:40;;;;;;;;;28.80;25.00;;;;;9.48;67.51;99671.59;5094379;28;9554;-59
2023/04/21 05:49:08;;;;;;;;;22.40;20.40;;;;;9.48;66.91;99666.28;5093345;28;8849;-62
2023/04/21 05:51:36;;;;;;;;;31.00;28.80;;;;;9.50;67.36;99661.69;5092426;28;8869;-60
2023/04/21 05:54:04;;;;;;;;;22.00;20.80;;;;;9.52;67.10;99667.75;5092361;28;8830;-62
2023/04/21 05:56:32;;;;;;;;;26.40;24.20;;;;;9.55;67.44;99667.50;5092808;28;8833;-61
2023/04/21 05:59:00;;;;;;;;;20.40;17.80;;;;;9.60;66.67;99665.31;5092693;28;8830;-61
2023/04/21 06:01:27;;;;;;;;;26.20;25.00;;;;;9.65;66.80;99667.63;5092888;28;8874;-61
2023/04/21 06:03:55;;;;;;;;;23.60;21.00;;;;;9.70;66.72;99658.28;5092262;28;8845;-61
2023/04/21 06:06:24;;;;;;;;;24.20;22.80;;;;;9.74;66.80;99657.09;5093498;28;8826;-60
2023/04/21 06:08:51;;;;;;;;;29.20;24.40;;;;;9.80;66.51;99650.44;5091814;28;8841;-61
2023/04/21 06:11:19;;;;;;;;;22.20;20.80;;;;;9.84;66.34;99649.19;5091614;28;8848;-59
2023/04/21 06:13:47;;;;;;;;;23.60;21.40;;;;;9.89;66.49;99652.34;5091820;28;8848;-61
2023/04/21 06:16:15;;;;;;;;;27.00;24.80;;;;;9.91;66.36;99645.94;5094262;28;8841;-61
2023/04/21 06:18:43;;;;;;;;;23.40;21.00;;;;;9.95;66.43;99639.38;5095667;28;8912;-61
2023/04/21 06:21:10;;;;;;;;;31.60;28.60;;;;;10.00;66.54;99646.97;5096246;28;8834;-61
2023/04/21 06:23:38;;;;;;;;;24.60;21.00;;;;;10.05;66.35;99651.00;5096779;28;8842;-60
2023/04/21 06:26:06;;;;;;;;;22.00;21.00;;;;;10.09;66.20;99646.28;5096770;28;8828;-61
2023/04/21 06:28:34;;;;;;;;;26.20;25.00;;;;;10.14;66.17;99644.91;5096559;28;8954;-61
2023/04/21 06:31:02;;;;;;;;;26.00;22.50;;;;;10.20;66.41;99643.56;5096804;28;8838;-61
2023/04/21 06:33:33;;;;;;;;;27.50;21.50;;;;;10.24;66.14;99643.16;5097162;28;8977;-59
2023/04/21 06:36:01;;;;;;;;;25.50;24.25;;;;;10.29;66.20;99648.09;5096142;28;8834;-59
2023/04/21 06:38:28;;;;;;;;;23.00;18.60;;;;;10.33;66.30;99647.72;5096720;28;8952;-62
2023/04/21 06:40:58;;;;;;;;;20.00;20.00;;;;;10.38;66.12;99645.53;5096387;28;8845;-61
2023/04/21 06:43:26;;;;;;;;;25.00;19.25;;;;;10.46;66.03;99644.91;5097142;28;8911;-61
2023/04/21 06:45:54;;;;;;;;;23.25;20.00;;;;;10.53;65.88;99646.91;5096698;28;8830;-61
2023/04/21 06:48:23;;;;;;;;;24.75;22.00;;;;;10.61;65.83;99638.28;5096625;28;8968;-61
2023/04/21 06:50:51;;;;;;;;;18.25;18.25;;;;;10.70;65.83;99642.84;5096437;28;8846;-61
2023/04/21 06:53:20;;;;;;;;;15.25;11.00;;;;;10.77;65.42;99647.50;5096288;28;8822;-61
2023/04/21 06:55:48;;;;;;;;;32.25;27.25;;;;;10.85;65.01;99655.66;5096613;28;8850;-60
2023/04/21 06:58:16;;;;;;;;;17.50;17.00;;;;;10.91;64.92;99652.50;5096304;28;8857;-60
2023/04/21 07:00:47;;;;;;;;;25.25;20.25;;;;;10.96;64.73;99644.97;5095939;28;9005;-60
2023/04/21 07:03:15;;;;;;;;;23.25;19.00;;;;;11.00;65.25;99657.03;5095649;28;8866;-61
2023/04/21 07:05:43;;;;;;;;;17.25;16.75;;;;;11.05;64.93;99652.16;5096242;28;8841;-60
2023/04/21 07:08:11;;;;;;;;;30.50;28.25;;;;;11.11;64.80;99648.09;5094645;28;8833;-61
2023/04/21 07:10:39;;;;;;;;;21.00;19.50;;;;;11.17;64.82;99645.78;5094648;28;8850;-62
2023/04/21 07:13:07;;;;;;;;;19.50;18.25;;;;;11.21;64.77;99649.03;5094246;28;8989;-60
2023/04/21 07:15:36;;;;;;;;;22.50;20.25;;;;;11.23;64.80;99642.56;5095270;28;8838;-58
2023/04/21 07:18:04;;;;;;;;;27.75;22.25;;;;;11.26;64.94;99636.97;5095411;28;8830;-61
2023/04/21 07:20:33;;;;;;;;;21.50;20.25;;;;;11.26;64.83;99638.78;5095033;28;8920;-61
2023/04/21 07:23:01;;;;;;;;;23.75;23.00;;;;;11.26;64.86;99642.31;5094854;28;8838;-62
2023/04/21 07:25:29;;;;;;;;;25.50;22.00;;;;;11.24;65.47;99636.25;5095227;28;8846;-61
2023/04/21 07:27:57;;;;;;;;;20.25;17.50;;;;;11.23;65.47;99645.22;5093851;28;9476;-60
2023/04/21 07:30:25;;;;;;;;;24.75;21.75;;;;;11.18;65.47;99644.78;5094729;28;8850;-61
2023/04/21 07:32:53;;;;;;;;;32.75;30.75;;;;;11.15;65.91;99645.03;5094540;28;8838;-62
2023/04/21 07:35:21;;;;;;;;;31.00;28.00;;;;;11.12;66.26;99639.13;5093804;28;8830;-61
2023/04/21 07:37:49;;;;;;;;;33.50;27.50;;;;;11.09;66.60;99640.22;5094658;28;8908;-62
2023/04/21 07:40:16;;;;;;;;;31.75;31.25;;;;;11.08;66.25;99640.38;5095120;28;8834;-60
2023/04/21 07:42:44;;;;;;;;;29.50;27.50;;;;;11.07;66.67;99644.88;5095646;28;8834;-61
2023/04/21 07:45:13;;;;;;;;;31.50;28.25;;;;;11.07;66.48;99647.53;5095295;28;8825;-61
2023/04/21 07:47:41;;;;;;;;;27.50;24.50;;;;;11.09;66.26;99644.75;5095974;28;8842;-61
2023/04/21 07:50:09;;;;;;;;;32.25;27.00;;;;;11.11;66.32;99640.97;5095160;28;8822;-59
2023/04/21 07:52:37;;;;;;;;;30.25;27.75;;;;;11.15;66.52;99638.88;5094616;28;8976;-61
2023/04/21 07:55:05;;;;;;;;;21.00;20.33;;;;;11.18;66.56;99649.25;5094256;28;8914;-60
2023/04/21 07:57:37;;;;;;;;;26.25;22.50;;;;;11.20;66.86;99637.50;5094614;28;8834;-61
2023/04/21 08:00:05;;;;;;;;;27.00;24.50;;;;;11.24;66.68;99633.56;5093984;28;8872;-62
2023/04/21 08:02:33;;;;;;;;;30.00;27.50;;;;;11.29;66.53;99626.03;5094349;28;8842;-59
2023/04/21 08:05:01;;;;;;;;;13.50;12.50;;;;;11.36;66.50;99629.03;5094535;28;9637;-58
2023/04/21 08:07:29;;;;;;;;;25.25;20.00;;;;;11.40;66.14;99628.63;5095173;28;8884;-62
2023/04/21 08:09:58;;;;;;;;;30.75;28.00;;;;;11.45;66.55;99622.88;5095556;28;8868;-58
2023/04/21 08:12:26;;;;;;;;;32.00;26.50;;;;;11.51;66.46;99628.50;5094729;28;8956;-60
2023/04/21 08:14:54;;;;;;;;;34.00;29.50;;;;;11.54;66.68;99630.06;5093891;28;8872;-59
2023/04/21 08:17:22;;;;;;;;;29.50;22.50;;;;;11.58;66.26;99639.50;5095656;28;8821;-60
2023/04/21 08:19:51;;;;;;;;;27.75;26.00;;;;;11.59;66.76;99626.03;5095615;28;8834;-60
2023/04/21 08:22:19;;;;;;;;;31.50;27.25;;;;;11.63;66.54;99635.47;5095268;28;8873;-61
2023/04/21 08:24:47;;;;;;;;;29.50;25.00;;;;;11.67;66.74;99634.19;5095498;28;8840;-61
2023/04/21 08:27:15;;;;;;;;;23.00;21.50;;;;;11.72;66.77;99628.44;5095275;28;8836;-61
2023/04/21 08:29:43;;;;;;;;;35.00;28.00;;;;;11.76;66.42;99641.38;5094779;28;8897;-62
2023/04/21 08:32:11;;;;;;;;;25.50;25.00;;;;;11.82;66.39;99632.81;5094950;28;8984;-62
2023/04/21 08:34:39;;;;;;;;;29.50;23.50;;;;;11.85;67.07;99637.03;5095117;28;8888;-61
2023/04/21 08:37:07;;;;;;;;;33.50;30.25;;;;;11.85;66.85;99643.25;5094387;28;8846;-61
2023/04/21 08:39:35;;;;;;;;;22.00;21.00;;;;;11.85;66.43;99643.25;5093562;28;8919;-61
2023/04/21 08:42:03;;;;;;;;;33.50;28.50;;;;;11.84;66.79;99638.84;5093641;28;8872;-59
2023/04/21 08:44:31;;;;;;;;;30.25;28.75;;;;;11.84;66.95;99649.53;5094028;28;8845;-60
2023/04/21 08:46:59;;;;;;;;;26.00;24.25;;;;;11.83;67.12;99647.84;5093282;28;8983;-62
2023/04/21 08:49:27;;;;;;;;;34.25;29.75;;;;;11.84;67.23;99654.03;5093146;28;8850;-61
2023/04/21 08:51:55;;;;;;;;;22.50;20.75;;;;;11.87;66.80;99646.59;5093510;28;8834;-59
2023/04/21 08:54:23;;;;;;;;;21.50;21.25;;;;;11.94;66.60;99650.41;5093241;28;8968;-61
2023/04/21 08:56:51;;;;;;;;;19.75;18.00;;;;;12.03;66.71;99646.91;5093105;28;8858;-61
2023/04/21 08:59:31;;;;;;;;;22.00;21.00;;;;;12.14;66.58;99644.09;5093515;28;8834;-62
2023/04/21 09:01:59;;;;;;;;;30.50;26.50;;;;;12.25;66.58;99642.13;5091879;28;8825;-60
2023/04/21 09:04:27;;;;;;;;;28.25;25.50;;;;;12.34;65.81;99645.81;5091241;28;8837;-59
2023/04/21 09:06:55;;;;;;;;;32.00;28.25;;;;;12.39;65.46;99640.91;5092652;28;9492;-59
2023/04/21 09:09:24;;;;;;;;;23.25;21.00;;;;;12.44;65.91;99635.97;5093255;28;8842;-59
2023/04/21 09:11:52;;;;;;;;;25.00;23.00;;;;;12.48;65.62;99640.03;5092542;28;8884;-59
2023/04/21 09:14:19;;;;;;;;;25.00;23.75;;;;;12.53;65.78;99637.81;5092693;28;8895;-59
2023/04/21 09:16:47;;;;;;;;;30.75;25.50;;;;;12.56;65.17;99642.84;5092115;28;8821;-59
2023/04/21 09:19:16;;;;;;;;;29.50;24.50;;;;;12.57;65.62;99639.19;5092159;28;8952;-59
2023/04/21 09:21:45;;;;;;;;;31.00;27.50;;;;;12.58;65.60;99635.53;5092553;28;8837;-60
2023/04/21 09:24:13;;;;;;;;;27.50;24.50;;;;;12.59;65.48;99638.06;5092584;28;8850;-59
2023/04/21 09:26:41;;;;;;;;;33.00;29.00;;;;;12.62;65.36;99626.25;5093477;28;8826;-59
2023/04/21 09:29:09;;;;;;;;;14.00;11.00;;;;;12.64;65.74;99634.97;5093396;28;9614;-61
2023/04/21 09:31:37;;;;;;;;;20.50;18.50;;;;;12.64;65.71;99638.50;5093373;28;8846;-60
2023/04/21 09:34:05;;;;;;;;;30.75;25.50;;;;;12.67;65.52;99634.66;5092840;28;8834;-60
2023/04/21 09:36:34;;;;;;;;;24.50;23.50;;;;;12.69;66.02;99633.53;5091406;28;8846;-59
2023/04/21 09:39:02;;;;;;;;;26.75;25.50;;;;;12.73;65.76;99632.28;5090742;28;8856;-59
2023/04/21 09:41:33;;;;;;;;;29.50;28.00;;;;;12.75;65.79;99637.50;5091546;28;8770;-59
2023/04/21 09:44:03;;;;;;;;;32.50;27.00;;;;;12.77;65.77;99630.19;5091567;28;8876;-60
2023/04/21 09:46:43;;;;;;;;;25.50;21.50;;;;;12.79;65.91;99631.72;5091786;28;8830;-61
2023/04/21 09:49:11;;;;;;;;;29.25;25.00;;;;;12.83;65.24;99634.94;5091856;28;8841;-61
2023/04/21 09:51:40;;;;;;;;;27.75;24.00;;;;;12.88;65.53;99621.97;5094559;28;8841;-62
2023/04/21 09:54:10;;;;;;;;;24.25;24.00;;;;;12.96;65.26;99622.13;5094854;28;8786;-59
2023/04/21 09:56:56;;;;;;;;;26.00;22.00;;;;;13.07;64.97;99625.47;5095445;28;8937;-62
2023/04/21 09:59:24;;;;;;;;;27.50;24.75;;;;;13.15;64.87;99620.25;5094905;28;8850;-59
2023/04/21 10:01:52;;;;;;;;;35.75;30.25;;;;;13.29;65.03;99616.28;5095183;28;8830;-60
2023/04/21 10:04:21;;;;;;;;;29.25;24.50;;;;;13.48;64.61;99613.50;5095141;28;8868;-59
2023/04/21 10:06:49;;;;;;;;;31.50;28.00;;;;;13.74;64.26;99601.13;5095255;28;8829;-60
2023/04/21 10:09:17;;;;;;;;;23.50;21.00;;;;;14.00;63.52;99596.69;5096212;28;8950;-61
2023/04/21 10:11:45;;;;;;;;;33.00;31.00;;;;;14.28;63.00;99590.31;5096103;28;8841;-59
2023/04/21 10:14:13;;;;;;;;;27.75;26.50;;;;;14.57;62.66;99596.25;5095612;28;8821;-60
2023/04/21 10:16:42;;;;;;;;;30.50;28.75;;;;;15.00;61.76;99598.88;5096383;28;8864;-59
2023/04/21 10:19:11;;;;;;;;;30.50;28.25;;;;;15.57;60.80;99593.72;5095923;28;8853;-60
2023/04/21 10:21:39;;;;;;;;;33.75;29.00;;;;;16.62;59.18;99582.97;5095209;28;8834;-59
2023/04/21 10:24:07;;;;;;;;;32.00;29.75;;;;;17.65;57.19;99581.06;5095932;28;8826;-60
2023/04/21 10:26:35;;;;;;;;;34.75;29.50;;;;;18.10;56.71;99575.75;5096812;28;8918;-60
2023/04/21 10:29:03;;;;;;;;;31.67;30.67;;;;;18.33;56.00;99576.63;5096367;28;8838;-60
2023/04/21 10:31:31;;;;;;;;;31.50;28.50;;;;;18.39;56.17;99580.47;5095973;28;8834;-60
2023/04/21 10:33:59;;;;;;;;;33.00;32.75;;;;;18.23;56.65;99591.34;5095338;28;8868;-60
2023/04/21 10:36:27;;;;;;;;;35.00;30.50;;;;;17.91;57.92;99588.84;5094361;28;8830;-60
2023/04/21 10:38:55;;;;;;;;;30.50;28.25;;;;;17.56;58.70;99595.59;5093940;28;8964;-60
2023/04/21 10:41:24;;;;;;;;;29.00;25.50;;;;;17.21;59.56;99587.06;5093936;28;8996;-59
2023/04/21 10:43:52;;;;;;;;;29.50;27.25;;;;;16.87;60.31;99589.19;5094686;28;8860;-62
2023/04/21 10:46:20;;;;;;;;;25.50;24.00;;;;;16.59;60.45;99582.47;5093656;28;8942;-62
2023/04/21 10:48:48;;;;;;;;;27.75;25.00;;;;;16.38;61.23;99579.44;5093627;28;8853;-61
2023/04/21 10:51:16;;;;;;;;;30.25;29.50;;;;;16.22;61.69;99565.16;5093748;28;8885;-62
2023/04/21 10:53:45;;;;;;;;;30.50;27.00;;;;;16.09;61.92;99570.16;5093996;28;8822;-59
2023/04/21 10:56:14;;;;;;;;;28.00;24.00;;;;;15.92;62.39;99571.97;5094864;28;8919;-61
2023/04/21 10:58:42;;;;;;;;;24.25;22.75;;;;;15.76;62.07;99571.94;5094914;28;8918;-62
2023/04/21 11:01:10;;;;;;;;;28.50;27.50;;;;;15.66;62.34;99565.88;5094027;28;8850;-62
2023/04/21 11:03:38;;;;;;;;;23.00;20.75;;;;;15.59;62.65;99574.72;5094956;28;8836;-61
2023/04/21 11:06:06;;;;;;;;;34.00;30.25;;;;;15.49;63.10;99576.72;5095193;28;8830;-62
2023/04/21 11:08:35;;;;;;;;;25.00;23.25;;;;;15.41;62.79;99576.69;5095362;28;8953;-62
2023/04/21 11:11:05;;;;;;;;;27.25;24.00;;;;;15.36;62.80;99569.13;5094926;28;8943;-61
2023/04/21 11:13:33;;;;;;;;;32.75;28.75;;;;;15.34;62.99;99559.53;5095611;28;8810;-60
2023/04/21 11:16:01;;;;;;;;;32.25;29.25;;;;;15.35;62.74;99558.53;5095681;28;8944;-62
2023/04/21 11:18:29;;;;;;;;;22.25;17.00;;;;;15.37;62.75;99564.56;5095808;28;8952;-61
2023/04/21 11:20:58;;;;;;;;;25.00;23.50;;;;;15.38;62.99;99563.56;5095546;28;8830;-62
2023/04/21 11:23:26;;;;;;;;;32.25;28.00;;;;;15.37;63.03;99561.91;5094443;28;8833;-61
2023/04/21 11:25:54;;;;;;;;;27.75;25.75;;;;;15.32;62.91;99561.56;5094199;28;8860;-62
2023/04/21 11:28:22;;;;;;;;;22.50;18.75;;;;;15.30;63.08;99552.78;5093789;28;8960;-62
2023/04/21 11:30:50;;;;;;;;;32.00;30.50;;;;;15.35;62.67;99551.34;5093854;28;8986;-60
2023/04/21 11:33:19;;;;;;;;;28.50;26.00;;;;;15.49;62.60;99539.97;5094335;28;8850;-60